首页
METAR-TAF:

METAR-TAF

机场 :

图兹拉国际机场

图兹拉, 波斯尼亚和黑塞哥维那

纬度: 44-33N, 经度: 018-42E, 海拔: 306米

当前天气观测

该预报发布于15分钟前的05:00 UTC
风速1节,风向多变
温度 14°C
湿度 94%
气压 1012 hPa
能见度10公里或以上
1500米以下无云,无积雨云

METAR: LQTZ 180500Z VRB01KT CAVOK 14/13 Q1012

时间: 07:15 (05:15 UTC)

预报

该预报发布于12小时和15分钟前的17:00 UTC
预报有效从17日的 18点(UTC)到 18日的 18点(UTC)
风速5节,风向
能见度10公里或以上
1500米以下无云,无积雨云
几率 40% :
短暂存在
从 18日的 12点(UTC)到 18日的 18点(UTC)
风速15节,风向多变
少量云层高于3000英尺, 积雨云.
散云层高于4000英尺
雷暴, 雨

TAF: LQTZ 171700Z 1718/1818 09005KT CAVOK TX28/1812Z TN12/1803Z PROB40 TEMPO 1812/1818 VRB15KT TSRA FEW030CB SCT040

超过4000个机场的气象观测和天气预报(METAR&TAF报告)。

可查询的气象台以黄色和红色小点在地图上表示。

将鼠标移到小点上方,可查看气象台名称。

然后点击查看天气观测和预报。

如需切换地图:点击带黑十字的绿色按钮放大地图;点击带横线的绿色按钮缩小地图;或者点击绿色箭头查看邻近地区的地图。


METAR-TAF: